sensor_id;sensor_type;location;lat;lon;timestamp;temperature;humidity
34985;DHT22;21190;58.750;17.004;2022-08-27T00:02:20;20.30;99.90
34985;DHT22;21190;58.750;17.004;2022-08-27T00:04:47;20.20;99.90
34985;DHT22;21190;58.750;17.004;2022-08-27T00:07:14;20.20;99.90
34985;DHT22;21190;58.750;17.004;2022-08-27T00:09:41;20.20;99.90
34985;DHT22;21190;58.750;17.004;2022-08-27T00:12:08;20.20;99.90
34985;DHT22;21190;58.750;17.004;2022-08-27T00:14:38;20.20;99.90
34985;DHT22;21190;58.750;17.004;2022-08-27T00:17:05;20.20;99.90
34985;DHT22;21190;58.750;17.004;2022-08-27T00:19:32;20.20;99.90
34985;DHT22;21190;58.750;17.004;2022-08-27T00:21:59;20.20;99.90
34985;DHT22;21190;58.750;17.004;2022-08-27T00:24:26;20.30;99.90
34985;DHT22;21190;58.750;17.004;2022-08-27T00:26:52;20.30;99.90
34985;DHT22;21190;58.750;17.004;2022-08-27T00:29:19;20.30;99.90
34985;DHT22;21190;58.750;17.004;2022-08-27T00:31:46;20.30;99.90
34985;DHT22;21190;58.750;17.004;2022-08-27T00:34:20;20.30;99.90
34985;DHT22;21190;58.750;17.004;2022-08-27T00:36:47;20.30;99.90
34985;DHT22;21190;58.750;17.004;2022-08-27T00:39:14;20.30;99.90
34985;DHT22;21190;58.750;17.004;2022-08-27T00:41:41;20.30;99.90
34985;DHT22;21190;58.750;17.004;2022-08-27T00:44:09;20.30;99.90
34985;DHT22;21190;58.750;17.004;2022-08-27T00:46:47;20.30;99.90
34985;DHT22;21190;58.750;17.004;2022-08-27T00:51:45;20.30;99.90
34985;DHT22;21190;58.750;17.004;2022-08-27T00:54:16;20.30;99.90
34985;DHT22;21190;58.750;17.004;2022-08-27T00:56:44;20.30;99.90
34985;DHT22;21190;58.750;17.004;2022-08-27T00:59:18;20.30;99.90
34985;DHT22;21190;58.750;17.004;2022-08-27T01:01:46;20.30;99.90
34985;DHT22;21190;58.750;17.004;2022-08-27T01:04:32;20.30;99.90
34985;DHT22;21190;58.750;17.004;2022-08-27T01:06:59;20.30;99.90
34985;DHT22;21190;58.750;17.004;2022-08-27T01:09:26;20.30;99.90
34985;DHT22;21190;58.750;17.004;2022-08-27T01:11:54;20.40;99.90
34985;DHT22;21190;58.750;17.004;2022-08-27T01:14:21;20.40;99.90
34985;DHT22;21190;58.750;17.004;2022-08-27T01:16:49;20.40;99.90
34985;DHT22;21190;58.750;17.004;2022-08-27T01:19:27;20.50;99.90
34985;DHT22;21190;58.750;17.004;2022-08-27T01:21:58;20.50;99.90
34985;DHT22;21190;58.750;17.004;2022-08-27T01:26:55;20.50;99.90
34985;DHT22;21190;58.750;17.004;2022-08-27T01:29:23;20.50;99.90
34985;DHT22;21190;58.750;17.004;2022-08-27T01:31:50;20.60;99.90
34985;DHT22;21190;58.750;17.004;2022-08-27T01:34:17;20.50;99.90
34985;DHT22;21190;58.750;17.004;2022-08-27T01:36:44;20.50;99.90
34985;DHT22;21190;58.750;17.004;2022-08-27T01:39:10;20.40;99.90
34985;DHT22;21190;58.750;17.004;2022-08-27T01:41:38;20.40;99.90
34985;DHT22;21190;58.750;17.004;2022-08-27T01:44:05;20.40;99.90
34985;DHT22;21190;58.750;17.004;2022-08-27T01:46:32;20.30;99.90
34985;DHT22;21190;58.750;17.004;2022-08-27T01:48:58;20.40;99.90
34985;DHT22;21190;58.750;17.004;2022-08-27T01:51:25;20.40;99.90
34985;DHT22;21190;58.750;17.004;2022-08-27T01:53:52;20.30;99.90
34985;DHT22;21190;58.750;17.004;2022-08-27T01:56:19;20.30;99.90
34985;DHT22;21190;58.750;17.004;2022-08-27T01:58:46;20.30;99.90
34985;DHT22;21190;58.750;17.004;2022-08-27T02:01:13;20.30;99.90
34985;DHT22;21190;58.750;17.004;2022-08-27T02:03:42;20.30;99.90
34985;DHT22;21190;58.750;17.004;2022-08-27T02:06:10;20.30;99.90
34985;DHT22;21190;58.750;17.004;2022-08-27T02:08:37;20.30;99.90
34985;DHT22;21190;58.750;17.004;2022-08-27T02:11:05;20.30;99.90
34985;DHT22;21190;58.750;17.004;2022-08-27T02:13:33;20.30;99.90
34985;DHT22;21190;58.750;17.004;2022-08-27T02:16:01;20.30;99.90
34985;DHT22;21190;58.750;17.004;2022-08-27T02:18:28;20.30;99.90
34985;DHT22;21190;58.750;17.004;2022-08-27T02:20:55;20.30;99.90
34985;DHT22;21190;58.750;17.004;2022-08-27T02:23:21;20.30;99.90
34985;DHT22;21190;58.750;17.004;2022-08-27T02:25:48;20.30;99.90
34985;DHT22;21190;58.750;17.004;2022-08-27T02:28:16;20.30;99.90
34985;DHT22;21190;58.750;17.004;2022-08-27T02:30:43;20.40;99.90
34985;DHT22;21190;58.750;17.004;2022-08-27T02:33:10;20.40;99.90
34985;DHT22;21190;58.750;17.004;2022-08-27T02:35:37;20.40;99.90
34985;DHT22;21190;58.750;17.004;2022-08-27T02:38:10;20.40;99.90
34985;DHT22;21190;58.750;17.004;2022-08-27T02:40:38;20.40;99.90
34985;DHT22;21190;58.750;17.004;2022-08-27T02:43:05;20.40;99.90
34985;DHT22;21190;58.750;17.004;2022-08-27T02:45:32;20.40;99.90
34985;DHT22;21190;58.750;17.004;2022-08-27T02:48:01;20.40;99.90
34985;DHT22;21190;58.750;17.004;2022-08-27T02:50:28;20.40;99.90
34985;DHT22;21190;58.750;17.004;2022-08-27T02:52:55;20.40;99.90
34985;DHT22;21190;58.750;17.004;2022-08-27T02:55:23;20.40;99.90
34985;DHT22;21190;58.750;17.004;2022-08-27T02:57:50;20.50;99.90
34985;DHT22;21190;58.750;17.004;2022-08-27T03:00:17;20.50;99.90
34985;DHT22;21190;58.750;17.004;2022-08-27T03:02:44;20.40;99.90
34985;DHT22;21190;58.750;17.004;2022-08-27T03:05:12;20.50;99.90
34985;DHT22;21190;58.750;17.004;2022-08-27T03:07:39;20.40;99.90
34985;DHT22;21190;58.750;17.004;2022-08-27T03:10:06;20.50;99.90
34985;DHT22;21190;58.750;17.004;2022-08-27T03:12:33;20.40;99.90
34985;DHT22;21190;58.750;17.004;2022-08-27T03:15:03;20.40;99.90
34985;DHT22;21190;58.750;17.004;2022-08-27T03:17:30;20.50;99.90
34985;DHT22;21190;58.750;17.004;2022-08-27T03:20:15;20.50;99.90
34985;DHT22;21190;58.750;17.004;2022-08-27T03:22:42;20.50;99.90
34985;DHT22;21190;58.750;17.004;2022-08-27T03:25:09;20.50;99.90
34985;DHT22;21190;58.750;17.004;2022-08-27T03:27:36;20.50;99.90
34985;DHT22;21190;58.750;17.004;2022-08-27T03:30:04;20.50;99.90
34985;DHT22;21190;58.750;17.004;2022-08-27T03:32:31;20.40;99.90
34985;DHT22;21190;58.750;17.004;2022-08-27T03:34:58;20.30;99.90
34985;DHT22;21190;58.750;17.004;2022-08-27T03:37:25;20.40;99.90
34985;DHT22;21190;58.750;17.004;2022-08-27T03:39:52;20.30;99.90
34985;DHT22;21190;58.750;17.004;2022-08-27T03:42:20;20.30;99.90
34985;DHT22;21190;58.750;17.004;2022-08-27T03:44:47;20.30;99.90
34985;DHT22;21190;58.750;17.004;2022-08-27T03:47:14;20.30;99.90
34985;DHT22;21190;58.750;17.004;2022-08-27T03:49:41;20.30;99.90
34985;DHT22;21190;58.750;17.004;2022-08-27T03:52:08;20.30;99.90
34985;DHT22;21190;58.750;17.004;2022-08-27T03:54:36;20.30;99.90
34985;DHT22;21190;58.750;17.004;2022-08-27T03:57:04;20.20;99.90
34985;DHT22;21190;58.750;17.004;2022-08-27T03:59:31;20.30;99.90
34985;DHT22;21190;58.750;17.004;2022-08-27T04:01:59;20.30;99.90
34985;DHT22;21190;58.750;17.004;2022-08-27T04:04:25;20.30;99.90
34985;DHT22;21190;58.750;17.004;2022-08-27T04:06:53;20.30;99.90
34985;DHT22;21190;58.750;17.004;2022-08-27T04:09:24;20.30;99.90
34985;DHT22;21190;58.750;17.004;2022-08-27T04:11:51;20.30;99.90
34985;DHT22;21190;58.750;17.004;2022-08-27T04:14:18;20.30;99.90
34985;DHT22;21190;58.750;17.004;2022-08-27T04:16:53;20.20;99.90
34985;DHT22;21190;58.750;17.004;2022-08-27T04:19:20;20.30;99.90
34985;DHT22;21190;58.750;17.004;2022-08-27T04:21:53;20.30;99.90
34985;DHT22;21190;58.750;17.004;2022-08-27T04:24:20;20.20;99.90
34985;DHT22;21190;58.750;17.004;2022-08-27T04:26:47;20.30;99.90
34985;DHT22;21190;58.750;17.004;2022-08-27T04:29:14;20.30;99.90
34985;DHT22;21190;58.750;17.004;2022-08-27T04:31:41;20.30;99.90
34985;DHT22;21190;58.750;17.004;2022-08-27T04:34:08;20.30;99.90
34985;DHT22;21190;58.750;17.004;2022-08-27T04:36:35;20.30;99.90
34985;DHT22;21190;58.750;17.004;2022-08-27T04:39:02;20.30;99.90
34985;DHT22;21190;58.750;17.004;2022-08-27T04:41:28;20.30;99.90
34985;DHT22;21190;58.750;17.004;2022-08-27T04:44:02;20.30;99.90
34985;DHT22;21190;58.750;17.004;2022-08-27T04:46:31;20.30;99.90
34985;DHT22;21190;58.750;17.004;2022-08-27T04:48:59;20.20;99.90
34985;DHT22;21190;58.750;17.004;2022-08-27T04:51:27;20.30;99.90
34985;DHT22;21190;58.750;17.004;2022-08-27T04:53:54;20.20;99.90
34985;DHT22;21190;58.750;17.004;2022-08-27T04:56:25;20.30;99.90
34985;DHT22;21190;58.750;17.004;2022-08-27T04:58:52;20.30;99.90
34985;DHT22;21190;58.750;17.004;2022-08-27T05:01:20;20.30;99.90
34985;DHT22;21190;58.750;17.004;2022-08-27T05:03:47;20.30;99.90
34985;DHT22;21190;58.750;17.004;2022-08-27T05:06:14;20.30;99.90
34985;DHT22;21190;58.750;17.004;2022-08-27T05:08:41;20.30;99.90
34985;DHT22;21190;58.750;17.004;2022-08-27T05:11:09;20.40;99.90
34985;DHT22;21190;58.750;17.004;2022-08-27T05:13:37;20.30;99.90
34985;DHT22;21190;58.750;17.004;2022-08-27T05:16:05;20.40;99.90
34985;DHT22;21190;58.750;17.004;2022-08-27T05:18:33;20.40;99.90
34985;DHT22;21190;58.750;17.004;2022-08-27T05:21:21;20.40;99.90
34985;DHT22;21190;58.750;17.004;2022-08-27T05:23:48;20.40;99.90
34985;DHT22;21190;58.750;17.004;2022-08-27T05:26:15;20.40;99.90
34985;DHT22;21190;58.750;17.004;2022-08-27T05:28:42;20.40;99.90
34985;DHT22;21190;58.750;17.004;2022-08-27T05:31:10;20.40;99.90
34985;DHT22;21190;58.750;17.004;2022-08-27T05:33:38;20.40;99.90
34985;DHT22;21190;58.750;17.004;2022-08-27T05:36:05;20.40;99.90
34985;DHT22;21190;58.750;17.004;2022-08-27T05:38:32;20.50;99.90
34985;DHT22;21190;58.750;17.004;2022-08-27T05:43:30;20.50;99.90
34985;DHT22;21190;58.750;17.004;2022-08-27T05:45:57;20.50;99.90
34985;DHT22;21190;58.750;17.004;2022-08-27T05:48:24;20.50;99.90
34985;DHT22;21190;58.750;17.004;2022-08-27T05:50:51;20.50;99.90
34985;DHT22;21190;58.750;17.004;2022-08-27T05:53:18;20.60;99.90
34985;DHT22;21190;58.750;17.004;2022-08-27T05:55:45;20.60;99.90
34985;DHT22;21190;58.750;17.004;2022-08-27T05:58:12;20.60;99.90
34985;DHT22;21190;58.750;17.004;2022-08-27T06:00:59;20.60;99.90
34985;DHT22;21190;58.750;17.004;2022-08-27T06:03:36;20.60;99.90
34985;DHT22;21190;58.750;17.004;2022-08-27T06:06:04;20.60;99.90
34985;DHT22;21190;58.750;17.004;2022-08-27T06:08:31;20.70;99.90
34985;DHT22;21190;58.750;17.004;2022-08-27T06:10:59;20.70;99.90
34985;DHT22;21190;58.750;17.004;2022-08-27T06:13:28;20.70;99.90
34985;DHT22;21190;58.750;17.004;2022-08-27T06:16:05;20.70;99.90
34985;DHT22;21190;58.750;17.004;2022-08-27T06:18:33;20.80;99.90
34985;DHT22;21190;58.750;17.004;2022-08-27T06:21:00;20.80;99.90
34985;DHT22;21190;58.750;17.004;2022-08-27T06:23:27;20.80;99.90
34985;DHT22;21190;58.750;17.004;2022-08-27T06:25:55;20.80;99.90
34985;DHT22;21190;58.750;17.004;2022-08-27T06:28:23;20.70;99.90
34985;DHT22;21190;58.750;17.004;2022-08-27T06:30:50;20.80;99.90
34985;DHT22;21190;58.750;17.004;2022-08-27T06:33:17;20.80;99.90
34985;DHT22;21190;58.750;17.004;2022-08-27T06:35:46;20.80;99.90
34985;DHT22;21190;58.750;17.004;2022-08-27T06:38:13;20.90;99.90
34985;DHT22;21190;58.750;17.004;2022-08-27T06:40:40;20.90;99.90
34985;DHT22;21190;58.750;17.004;2022-08-27T06:43:07;20.90;99.90
34985;DHT22;21190;58.750;17.004;2022-08-27T06:45:38;20.90;99.90
34985;DHT22;21190;58.750;17.004;2022-08-27T06:48:05;20.90;99.90
34985;DHT22;21190;58.750;17.004;2022-08-27T06:50:38;21.00;99.90
34985;DHT22;21190;58.750;17.004;2022-08-27T06:53:05;21.00;99.90
34985;DHT22;21190;58.750;17.004;2022-08-27T06:55:39;21.10;99.90
34985;DHT22;21190;58.750;17.004;2022-08-27T06:58:06;21.10;99.90
34985;DHT22;21190;58.750;17.004;2022-08-27T07:00:33;21.10;99.90
34985;DHT22;21190;58.750;17.004;2022-08-27T07:03:00;21.20;99.90
34985;DHT22;21190;58.750;17.004;2022-08-27T07:05:31;21.20;99.90
34985;DHT22;21190;58.750;17.004;2022-08-27T07:07:58;21.20;99.90
34985;DHT22;21190;58.750;17.004;2022-08-27T07:10:25;21.20;99.90
34985;DHT22;21190;58.750;17.004;2022-08-27T07:12:52;21.20;99.90
34985;DHT22;21190;58.750;17.004;2022-08-27T07:15:19;21.30;99.90
34985;DHT22;21190;58.750;17.004;2022-08-27T07:17:50;21.30;99.90
34985;DHT22;21190;58.750;17.004;2022-08-27T07:20:18;21.30;99.90
34985;DHT22;21190;58.750;17.004;2022-08-27T07:22:45;21.30;99.90
34985;DHT22;21190;58.750;17.004;2022-08-27T07:25:13;21.40;99.90
34985;DHT22;21190;58.750;17.004;2022-08-27T07:27:40;21.30;99.90
34985;DHT22;21190;58.750;17.004;2022-08-27T07:30:08;21.40;99.90
34985;DHT22;21190;58.750;17.004;2022-08-27T07:32:37;21.40;99.90
34985;DHT22;21190;58.750;17.004;2022-08-27T07:35:04;21.40;99.90
34985;DHT22;21190;58.750;17.004;2022-08-27T07:37:35;21.40;99.90
34985;DHT22;21190;58.750;17.004;2022-08-27T07:40:03;21.50;99.90
34985;DHT22;21190;58.750;17.004;2022-08-27T07:42:30;21.50;99.90
34985;DHT22;21190;58.750;17.004;2022-08-27T07:45:16;21.50;99.90
34985;DHT22;21190;58.750;17.004;2022-08-27T07:47:43;21.50;99.90
34985;DHT22;21190;58.750;17.004;2022-08-27T07:50:09;21.60;99.90
34985;DHT22;21190;58.750;17.004;2022-08-27T07:52:36;21.60;99.90
34985;DHT22;21190;58.750;17.004;2022-08-27T07:55:03;21.60;99.90
34985;DHT22;21190;58.750;17.004;2022-08-27T07:57:30;21.70;99.90
34985;DHT22;21190;58.750;17.004;2022-08-27T07:59:57;21.70;99.90
34985;DHT22;21190;58.750;17.004;2022-08-27T08:02:25;21.80;99.90
34985;DHT22;21190;58.750;17.004;2022-08-27T08:04:53;21.80;99.90
34985;DHT22;21190;58.750;17.004;2022-08-27T08:07:20;21.80;99.90
34985;DHT22;21190;58.750;17.004;2022-08-27T08:09:47;21.80;99.90
34985;DHT22;21190;58.750;17.004;2022-08-27T08:12:14;21.90;99.90
34985;DHT22;21190;58.750;17.004;2022-08-27T08:14:41;21.90;99.90
34985;DHT22;21190;58.750;17.004;2022-08-27T08:17:08;21.90;99.90
34985;DHT22;21190;58.750;17.004;2022-08-27T08:19:36;22.00;99.90
34985;DHT22;21190;58.750;17.004;2022-08-27T08:22:03;22.00;99.90
34985;DHT22;21190;58.750;17.004;2022-08-27T08:24:32;22.10;99.90
34985;DHT22;21190;58.750;17.004;2022-08-27T08:26:59;22.10;99.90
34985;DHT22;21190;58.750;17.004;2022-08-27T08:29:33;22.20;99.90
34985;DHT22;21190;58.750;17.004;2022-08-27T08:31:59;22.20;99.90
34985;DHT22;21190;58.750;17.004;2022-08-27T08:34:26;22.30;99.90
34985;DHT22;21190;58.750;17.004;2022-08-27T08:36:54;22.30;99.90
34985;DHT22;21190;58.750;17.004;2022-08-27T08:39:21;22.40;99.90
34985;DHT22;21190;58.750;17.004;2022-08-27T08:41:56;22.40;99.90
34985;DHT22;21190;58.750;17.004;2022-08-27T08:44:28;22.50;99.90
34985;DHT22;21190;58.750;17.004;2022-08-27T08:47:02;22.50;99.90
34985;DHT22;21190;58.750;17.004;2022-08-27T08:49:38;22.60;99.90
34985;DHT22;21190;58.750;17.004;2022-08-27T08:54:59;22.70;99.90
34985;DHT22;21190;58.750;17.004;2022-08-27T08:57:32;22.80;99.90
34985;DHT22;21190;58.750;17.004;2022-08-27T09:00:05;22.90;99.90
34985;DHT22;21190;58.750;17.004;2022-08-27T09:02:35;22.90;99.90
34985;DHT22;21190;58.750;17.004;2022-08-27T09:05:03;23.00;99.90
34985;DHT22;21190;58.750;17.004;2022-08-27T09:12:37;23.20;99.90
34985;DHT22;21190;58.750;17.004;2022-08-27T09:17:38;23.30;99.90
34985;DHT22;21190;58.750;17.004;2022-08-27T09:20:05;23.30;99.90
34985;DHT22;21190;58.750;17.004;2022-08-27T09:22:46;23.40;99.90
34985;DHT22;21190;58.750;17.004;2022-08-27T09:25:19;23.40;99.90
34985;DHT22;21190;58.750;17.004;2022-08-27T09:27:52;23.50;99.90
34985;DHT22;21190;58.750;17.004;2022-08-27T09:30:21;23.50;99.90
34985;DHT22;21190;58.750;17.004;2022-08-27T09:32:56;23.60;99.90
34985;DHT22;21190;58.750;17.004;2022-08-27T09:35:24;23.60;99.90
34985;DHT22;21190;58.750;17.004;2022-08-27T09:37:53;23.70;99.90
34985;DHT22;21190;58.750;17.004;2022-08-27T09:40:28;23.80;99.90
34985;DHT22;21190;58.750;17.004;2022-08-27T09:43:07;23.80;99.90
34985;DHT22;21190;58.750;17.004;2022-08-27T09:48:36;23.90;99.90
34985;DHT22;21190;58.750;17.004;2022-08-27T09:51:07;24.00;99.90
34985;DHT22;21190;58.750;17.004;2022-08-27T09:53:42;24.00;99.90
34985;DHT22;21190;58.750;17.004;2022-08-27T09:56:28;23.90;99.90
34985;DHT22;21190;58.750;17.004;2022-08-27T10:01:52;23.90;99.90
34985;DHT22;21190;58.750;17.004;2022-08-27T10:04:25;23.90;99.90
34985;DHT22;21190;58.750;17.004;2022-08-27T10:06:53;24.00;99.90
34985;DHT22;21190;58.750;17.004;2022-08-27T10:09:30;23.90;99.90
34985;DHT22;21190;58.750;17.004;2022-08-27T10:12:05;23.90;99.90
34985;DHT22;21190;58.750;17.004;2022-08-27T10:14:46;23.90;99.90
34985;DHT22;21190;58.750;17.004;2022-08-27T10:17:17;24.00;99.90
34985;DHT22;21190;58.750;17.004;2022-08-27T10:22:35;24.20;99.90
34985;DHT22;21190;58.750;17.004;2022-08-27T10:27:52;24.30;99.90
34985;DHT22;21190;58.750;17.004;2022-08-27T10:36:09;24.60;99.90
34985;DHT22;21190;58.750;17.004;2022-08-27T10:38:44;24.70;99.90
34985;DHT22;21190;58.750;17.004;2022-08-27T10:41:16;24.70;99.90
34985;DHT22;21190;58.750;17.004;2022-08-27T10:49:03;24.80;99.90
34985;DHT22;21190;58.750;17.004;2022-08-27T10:51:38;24.80;99.90
34985;DHT22;21190;58.750;17.004;2022-08-27T10:54:15;24.90;99.90
34985;DHT22;21190;58.750;17.004;2022-08-27T10:56:58;24.80;99.90
34985;DHT22;21190;58.750;17.004;2022-08-27T10:59:58;24.90;99.90
34985;DHT22;21190;58.750;17.004;2022-08-27T11:02:44;24.90;99.90
34985;DHT22;21190;58.750;17.004;2022-08-27T11:05:17;24.90;99.90
34985;DHT22;21190;58.750;17.004;2022-08-27T11:07:46;24.90;99.90
34985;DHT22;21190;58.750;17.004;2022-08-27T11:10:18;25.00;99.90
34985;DHT22;21190;58.750;17.004;2022-08-27T11:12:47;25.10;99.90
34985;DHT22;21190;58.750;17.004;2022-08-27T11:15:24;25.20;99.90
34985;DHT22;21190;58.750;17.004;2022-08-27T11:20:23;25.20;99.90
34985;DHT22;21190;58.750;17.004;2022-08-27T11:22:55;25.20;99.90
34985;DHT22;21190;58.750;17.004;2022-08-27T11:27:53;25.30;99.90
34985;DHT22;21190;58.750;17.004;2022-08-27T11:43:44;25.30;99.90
34985;DHT22;21190;58.750;17.004;2022-08-27T11:46:19;25.40;99.90
34985;DHT22;21190;58.750;17.004;2022-08-27T11:48:57;25.30;99.90
34985;DHT22;21190;58.750;17.004;2022-08-27T11:53:55;25.40;99.90
34985;DHT22;21190;58.750;17.004;2022-08-27T11:58:52;25.30;99.90
34985;DHT22;21190;58.750;17.004;2022-08-27T12:01:26;25.30;99.90
34985;DHT22;21190;58.750;17.004;2022-08-27T12:04:00;25.30;99.90
34985;DHT22;21190;58.750;17.004;2022-08-27T12:06:27;25.20;99.90
34985;DHT22;21190;58.750;17.004;2022-08-27T12:09:12;25.20;99.90
34985;DHT22;21190;58.750;17.004;2022-08-27T12:14:46;25.20;99.90
34985;DHT22;21190;58.750;17.004;2022-08-27T12:25:39;25.10;99.90
34985;DHT22;21190;58.750;17.004;2022-08-27T12:28:07;25.00;99.90
34985;DHT22;21190;58.750;17.004;2022-08-27T12:30:36;25.10;99.90
34985;DHT22;21190;58.750;17.004;2022-08-27T12:33:07;25.20;99.90
34985;DHT22;21190;58.750;17.004;2022-08-27T12:35:39;25.20;99.90
34985;DHT22;21190;58.750;17.004;2022-08-27T12:40:46;25.30;99.90
34985;DHT22;21190;58.750;17.004;2022-08-27T12:43:20;25.30;99.90
34985;DHT22;21190;58.750;17.004;2022-08-27T12:45:49;25.30;99.90
34985;DHT22;21190;58.750;17.004;2022-08-27T12:48:19;25.30;99.90
34985;DHT22;21190;58.750;17.004;2022-08-27T12:50:57;25.20;99.90
34985;DHT22;21190;58.750;17.004;2022-08-27T12:53:30;25.30;99.90
34985;DHT22;21190;58.750;17.004;2022-08-27T12:56:07;25.30;99.90
34985;DHT22;21190;58.750;17.004;2022-08-27T13:04:02;25.40;99.90
34985;DHT22;21190;58.750;17.004;2022-08-27T13:06:32;25.40;99.90
34985;DHT22;21190;58.750;17.004;2022-08-27T13:09:00;25.30;99.90
34985;DHT22;21190;58.750;17.004;2022-08-27T13:11:29;25.30;99.90
34985;DHT22;21190;58.750;17.004;2022-08-27T13:14:08;25.20;99.90
34985;DHT22;21190;58.750;17.004;2022-08-27T13:16:36;25.20;99.90
34985;DHT22;21190;58.750;17.004;2022-08-27T13:19:05;25.20;99.90
34985;DHT22;21190;58.750;17.004;2022-08-27T13:21:32;25.20;99.90
34985;DHT22;21190;58.750;17.004;2022-08-27T13:24:00;25.10;99.90
34985;DHT22;21190;58.750;17.004;2022-08-27T13:26:29;25.10;99.90
34985;DHT22;21190;58.750;17.004;2022-08-27T13:29:00;25.10;99.90
34985;DHT22;21190;58.750;17.004;2022-08-27T13:31:29;25.10;99.90
34985;DHT22;21190;58.750;17.004;2022-08-27T13:33:57;25.10;99.90
34985;DHT22;21190;58.750;17.004;2022-08-27T13:38:57;25.10;99.90
34985;DHT22;21190;58.750;17.004;2022-08-27T13:41:29;25.00;99.90
34985;DHT22;21190;58.750;17.004;2022-08-27T13:43:57;25.00;99.90
34985;DHT22;21190;58.750;17.004;2022-08-27T13:46:30;25.00;99.90
34985;DHT22;21190;58.750;17.004;2022-08-27T13:48:58;25.00;99.90
34985;DHT22;21190;58.750;17.004;2022-08-27T13:51:29;25.00;99.90
34985;DHT22;21190;58.750;17.004;2022-08-27T13:53:56;24.90;99.90
34985;DHT22;21190;58.750;17.004;2022-08-27T14:01:55;24.60;99.90
34985;DHT22;21190;58.750;17.004;2022-08-27T14:04:25;24.50;99.90
34985;DHT22;21190;58.750;17.004;2022-08-27T14:06:52;24.30;99.90
34985;DHT22;21190;58.750;17.004;2022-08-27T14:09:27;24.30;99.90
34985;DHT22;21190;58.750;17.004;2022-08-27T14:12:02;24.30;99.90
34985;DHT22;21190;58.750;17.004;2022-08-27T14:14:35;24.20;99.90
34985;DHT22;21190;58.750;17.004;2022-08-27T14:17:02;24.00;99.90
34985;DHT22;21190;58.750;17.004;2022-08-27T14:19:31;24.10;99.90
34985;DHT22;21190;58.750;17.004;2022-08-27T14:22:02;24.00;99.90
34985;DHT22;21190;58.750;17.004;2022-08-27T14:24:29;24.00;99.90
34985;DHT22;21190;58.750;17.004;2022-08-27T14:27:01;24.00;99.90
34985;DHT22;21190;58.750;17.004;2022-08-27T14:29:29;24.00;99.90
34985;DHT22;21190;58.750;17.004;2022-08-27T14:31:56;24.00;99.90
34985;DHT22;21190;58.750;17.004;2022-08-27T14:34:23;24.10;99.90
34985;DHT22;21190;58.750;17.004;2022-08-27T14:36:50;24.00;99.90
34985;DHT22;21190;58.750;17.004;2022-08-27T14:39:20;24.10;99.90
34985;DHT22;21190;58.750;17.004;2022-08-27T14:41:52;24.10;99.90
34985;DHT22;21190;58.750;17.004;2022-08-27T14:44:20;24.10;99.90
34985;DHT22;21190;58.750;17.004;2022-08-27T14:46:47;24.00;99.90
34985;DHT22;21190;58.750;17.004;2022-08-27T14:49:25;24.00;99.90
34985;DHT22;21190;58.750;17.004;2022-08-27T14:51:53;23.90;99.90
34985;DHT22;21190;58.750;17.004;2022-08-27T14:54:20;23.80;99.90
34985;DHT22;21190;58.750;17.004;2022-08-27T14:56:47;23.80;99.90
34985;DHT22;21190;58.750;17.004;2022-08-27T14:59:13;23.80;99.90
34985;DHT22;21190;58.750;17.004;2022-08-27T15:01:40;23.70;99.90
34985;DHT22;21190;58.750;17.004;2022-08-27T15:04:07;23.70;99.90
34985;DHT22;21190;58.750;17.004;2022-08-27T15:06:35;23.60;99.90
34985;DHT22;21190;58.750;17.004;2022-08-27T15:09:03;23.50;99.90
34985;DHT22;21190;58.750;17.004;2022-08-27T15:11:31;23.50;99.90
34985;DHT22;21190;58.750;17.004;2022-08-27T15:14:00;23.40;99.90
34985;DHT22;21190;58.750;17.004;2022-08-27T15:18:54;23.40;99.90
34985;DHT22;21190;58.750;17.004;2022-08-27T15:21:27;23.30;99.90
34985;DHT22;21190;58.750;17.004;2022-08-27T15:23:57;23.30;99.90
34985;DHT22;21190;58.750;17.004;2022-08-27T15:26:24;23.30;99.90
34985;DHT22;21190;58.750;17.004;2022-08-27T15:28:51;23.30;99.90
34985;DHT22;21190;58.750;17.004;2022-08-27T15:31:18;23.30;99.90
34985;DHT22;21190;58.750;17.004;2022-08-27T15:33:45;23.30;99.90
34985;DHT22;21190;58.750;17.004;2022-08-27T15:36:12;23.30;99.90
34985;DHT22;21190;58.750;17.004;2022-08-27T15:38:39;23.30;99.90
34985;DHT22;21190;58.750;17.004;2022-08-27T15:41:06;23.40;99.90
34985;DHT22;21190;58.750;17.004;2022-08-27T15:43:36;23.40;99.90
34985;DHT22;21190;58.750;17.004;2022-08-27T15:46:03;23.30;99.90
34985;DHT22;21190;58.750;17.004;2022-08-27T15:48:30;23.30;99.90
34985;DHT22;21190;58.750;17.004;2022-08-27T15:51:03;23.20;99.90
34985;DHT22;21190;58.750;17.004;2022-08-27T15:53:31;23.10;99.90
34985;DHT22;21190;58.750;17.004;2022-08-27T15:55:58;23.10;99.90
34985;DHT22;21190;58.750;17.004;2022-08-27T15:58:26;23.00;99.90
34985;DHT22;21190;58.750;17.004;2022-08-27T16:00:55;23.00;99.90
34985;DHT22;21190;58.750;17.004;2022-08-27T16:03:29;23.00;99.90
34985;DHT22;21190;58.750;17.004;2022-08-27T16:06:02;23.00;99.90
34985;DHT22;21190;58.750;17.004;2022-08-27T16:08:30;23.00;99.90
34985;DHT22;21190;58.750;17.004;2022-08-27T16:11:07;22.90;99.90
34985;DHT22;21190;58.750;17.004;2022-08-27T16:13:34;22.90;99.90
34985;DHT22;21190;58.750;17.004;2022-08-27T16:16:01;22.80;99.90
34985;DHT22;21190;58.750;17.004;2022-08-27T16:18:29;22.70;99.90
34985;DHT22;21190;58.750;17.004;2022-08-27T16:20:56;22.70;99.90
34985;DHT22;21190;58.750;17.004;2022-08-27T16:23:24;22.60;99.90
34985;DHT22;21190;58.750;17.004;2022-08-27T16:25:54;22.60;99.90
34985;DHT22;21190;58.750;17.004;2022-08-27T16:28:22;22.60;99.90
34985;DHT22;21190;58.750;17.004;2022-08-27T16:30:49;22.60;99.90
34985;DHT22;21190;58.750;17.004;2022-08-27T16:33:17;22.60;99.90
34985;DHT22;21190;58.750;17.004;2022-08-27T16:35:43;22.70;99.90
34985;DHT22;21190;58.750;17.004;2022-08-27T16:38:11;22.70;99.90
34985;DHT22;21190;58.750;17.004;2022-08-27T16:40:39;22.70;99.90
34985;DHT22;21190;58.750;17.004;2022-08-27T16:43:14;22.80;99.90
34985;DHT22;21190;58.750;17.004;2022-08-27T16:45:41;22.70;99.90
34985;DHT22;21190;58.750;17.004;2022-08-27T16:48:08;22.70;99.90
34985;DHT22;21190;58.750;17.004;2022-08-27T16:50:53;22.70;99.90
34985;DHT22;21190;58.750;17.004;2022-08-27T16:53:21;22.60;99.90
34985;DHT22;21190;58.750;17.004;2022-08-27T16:55:47;22.60;99.90
34985;DHT22;21190;58.750;17.004;2022-08-27T16:58:22;22.60;99.90
34985;DHT22;21190;58.750;17.004;2022-08-27T17:00:50;22.60;99.90
34985;DHT22;21190;58.750;17.004;2022-08-27T17:03:18;22.60;99.90